createdAt,value
2022-09-27T00:00:11.626Z,12.57
2022-09-27T00:02:38.670Z,12.69
2022-09-27T00:05:05.974Z,12.65
2022-09-27T00:07:33.060Z,12.53
2022-09-27T00:09:59.845Z,12.56
2022-09-27T00:12:26.645Z,12.61
2022-09-27T00:14:53.549Z,12.57
2022-09-27T00:17:20.354Z,12.51
2022-09-27T00:19:47.149Z,12.55
2022-09-27T00:22:13.929Z,12.67
2022-09-27T00:24:40.727Z,12.71
2022-09-27T00:27:07.566Z,12.62
2022-09-27T00:29:34.502Z,12.64
2022-09-27T00:32:01.560Z,12.71
2022-09-27T00:34:28.380Z,12.61
2022-09-27T00:36:55.645Z,12.50
2022-09-27T00:39:22.463Z,12.43
2022-09-27T00:41:49.377Z,12.57
2022-09-27T00:44:25.301Z,12.64
2022-09-27T00:47:25.382Z,12.56
2022-09-27T00:49:59.264Z,12.57
2022-09-27T00:52:35.548Z,12.61
2022-09-27T00:55:15.332Z,12.64
2022-09-27T00:57:44.755Z,12.61
2022-09-27T01:00:15.201Z,12.46
2022-09-27T01:02:47.612Z,12.56
2022-09-27T01:05:16.585Z,12.60
2022-09-27T01:07:43.446Z,12.47
2022-09-27T01:10:11.363Z,12.53
2022-09-27T01:12:59.004Z,12.40
2022-09-27T01:15:52.632Z,12.39
2022-09-27T01:18:32.855Z,12.46
2022-09-27T01:21:45.182Z,12.45
2022-09-27T01:24:26.709Z,12.35
2022-09-27T01:26:56.450Z,12.35
2022-09-27T01:29:49.631Z,12.37
2022-09-27T01:32:45.453Z,12.45
2022-09-27T01:35:27.239Z,12.39
2022-09-27T01:38:33.713Z,12.36
2022-09-27T01:41:09.036Z,12.36
2022-09-27T01:43:47.127Z,12.27
2022-09-27T01:46:33.951Z,12.41
2022-09-27T01:49:11.871Z,12.28
2022-09-27T01:51:48.752Z,12.35
2022-09-27T01:54:24.252Z,12.25
2022-09-27T01:56:55.486Z,12.36
2022-09-27T01:59:54.453Z,12.33
2022-09-27T02:02:25.087Z,12.20
2022-09-27T02:05:00.377Z,12.27
2022-09-27T02:07:42.314Z,12.27
2022-09-27T02:10:19.676Z,12.41
2022-09-27T02:12:58.021Z,12.28
2022-09-27T02:15:27.809Z,12.45
2022-09-27T02:18:02.340Z,12.32
2022-09-27T02:20:40.106Z,12.33
2022-09-27T02:23:09.576Z,12.44
2022-09-27T02:25:44.886Z,12.44
2022-09-27T02:28:46.334Z,12.50
2022-09-27T02:31:13.411Z,12.51
2022-09-27T02:33:53.841Z,12.58
2022-09-27T02:36:21.429Z,12.49
2022-09-27T02:38:48.685Z,12.49
2022-09-27T02:41:18.747Z,12.45
2022-09-27T02:43:51.391Z,12.35
2022-09-27T02:46:23.975Z,12.43
2022-09-27T02:49:38.150Z,12.44
2022-09-27T02:52:38.610Z,12.50
2022-09-27T02:55:24.895Z,12.44
2022-09-27T02:58:09.509Z,12.45
2022-09-27T03:01:09.389Z,12.40
2022-09-27T03:03:48.050Z,12.43
2022-09-27T03:06:18.140Z,12.43
2022-09-27T03:08:45.827Z,12.38
2022-09-27T03:11:12.611Z,12.33
2022-09-27T03:13:55.812Z,12.31
2022-09-27T03:16:26.471Z,12.43
2022-09-27T03:18:53.268Z,12.25
2022-09-27T03:21:20.095Z,12.24
2022-09-27T03:23:46.860Z,12.23
2022-09-27T03:26:13.690Z,12.36
2022-09-27T03:28:40.576Z,12.20
2022-09-27T03:31:07.426Z,12.30
2022-09-27T03:33:34.298Z,12.32
2022-09-27T03:36:01.436Z,12.09
2022-09-27T03:38:28.230Z,12.22
2022-09-27T03:40:55.062Z,12.26
2022-09-27T03:43:21.906Z,12.25
2022-09-27T03:45:48.824Z,12.20
2022-09-27T03:48:15.648Z,12.17
2022-09-27T03:50:42.729Z,12.20
2022-09-27T03:53:09.520Z,12.30
2022-09-27T03:55:36.305Z,12.28
2022-09-27T03:58:03.427Z,12.29
2022-09-27T04:00:32.640Z,12.28
2022-09-27T04:03:00.196Z,12.14
2022-09-27T04:05:30.009Z,12.29
2022-09-27T04:07:57.161Z,12.35
2022-09-27T04:10:24.551Z,12.30
2022-09-27T04:12:51.670Z,12.30
2022-09-27T04:15:18.492Z,12.23
2022-09-27T04:17:45.320Z,12.02
2022-09-27T04:20:12.292Z,12.08
2022-09-27T04:22:44.212Z,12.09
2022-09-27T04:25:11.512Z,12.22
2022-09-27T04:27:38.866Z,12.22
2022-09-27T04:30:07.304Z,12.26
2022-09-27T04:32:34.120Z,12.25
2022-09-27T04:35:19.279Z,12.31
2022-09-27T04:37:46.615Z,12.39
2022-09-27T04:40:13.481Z,12.12
2022-09-27T04:42:40.397Z,12.13
2022-09-27T04:45:07.664Z,12.05
2022-09-27T04:47:35.087Z,12.00
2022-09-27T04:50:01.956Z,12.05
2022-09-27T04:52:28.762Z,12.00
2022-09-27T04:54:55.586Z,11.97
2022-09-27T04:57:22.384Z,11.99
2022-09-27T04:59:51.572Z,12.08
2022-09-27T05:02:18.802Z,12.03
2022-09-27T05:04:45.765Z,11.76
2022-09-27T05:07:12.538Z,11.65
2022-09-27T05:09:39.373Z,11.79
2022-09-27T05:12:07.768Z,11.76
2022-09-27T05:14:34.898Z,11.70
2022-09-27T05:17:01.722Z,11.90
2022-09-27T05:19:28.664Z,11.79
2022-09-27T05:21:55.483Z,11.89
2022-09-27T05:24:22.267Z,11.75
2022-09-27T05:26:49.106Z,11.81
2022-09-27T05:29:16.042Z,11.84
2022-09-27T05:31:42.931Z,11.65
2022-09-27T05:34:11.935Z,11.82
2022-09-27T05:36:39.166Z,11.89
2022-09-27T05:39:07.146Z,11.69
2022-09-27T05:41:34.074Z,11.80
2022-09-27T05:44:01.250Z,11.92
2022-09-27T05:46:28.226Z,11.93
2022-09-27T05:48:55.073Z,11.89
2022-09-27T05:51:21.888Z,11.87
2022-09-27T05:53:48.777Z,11.86
2022-09-27T05:56:15.574Z,11.87
2022-09-27T05:58:42.771Z,11.88
2022-09-27T06:01:10.636Z,11.84
2022-09-27T06:03:37.625Z,11.80
2022-09-27T06:06:07.923Z,11.86
2022-09-27T06:08:36.861Z,11.85
2022-09-27T06:11:12.414Z,11.74
2022-09-27T06:13:39.765Z,11.68
2022-09-27T06:16:10.497Z,11.67
2022-09-27T06:18:37.907Z,11.58
2022-09-27T06:21:06.247Z,11.76
2022-09-27T06:23:33.528Z,11.83
2022-09-27T06:26:06.499Z,11.76
2022-09-27T06:28:35.500Z,11.83
2022-09-27T06:31:02.788Z,11.74
2022-09-27T06:33:29.631Z,11.84
2022-09-27T06:35:56.749Z,11.83
2022-09-27T06:38:24.876Z,11.87
2022-09-27T06:40:51.845Z,11.98
2022-09-27T06:43:20.965Z,11.76
2022-09-27T06:45:48.112Z,11.77
2022-09-27T06:48:17.055Z,11.87
2022-09-27T06:50:46.081Z,11.84
2022-09-27T06:53:15.347Z,11.89
2022-09-27T06:55:43.043Z,11.90
2022-09-27T06:58:30.696Z,11.68
2022-09-27T07:00:58.659Z,11.91
2022-09-27T07:03:36.615Z,11.81
2022-09-27T07:06:08.176Z,11.93
2022-09-27T07:08:35.824Z,11.91
2022-09-27T07:11:05.626Z,11.96
2022-09-27T07:13:34.513Z,12.02
2022-09-27T07:16:01.768Z,12.00
2022-09-27T07:18:29.023Z,12.03
2022-09-27T07:20:59.926Z,12.00
2022-09-27T07:23:27.654Z,12.12
2022-09-27T07:25:54.462Z,12.12
2022-09-27T07:28:22.237Z,12.05
2022-09-27T07:30:50.265Z,12.05
2022-09-27T07:33:17.208Z,12.04
2022-09-27T07:35:44.197Z,12.13
2022-09-27T07:38:13.970Z,12.14
2022-09-27T07:40:41.522Z,12.10
2022-09-27T07:43:09.444Z,12.17
2022-09-27T07:45:37.747Z,12.22
2022-09-27T07:48:09.273Z,12.16
2022-09-27T07:50:36.131Z,12.25
2022-09-27T07:53:04.817Z,12.28
2022-09-27T07:55:31.994Z,12.30
2022-09-27T07:58:08.822Z,12.19
2022-09-27T08:00:37.191Z,11.93
2022-09-27T08:03:18.123Z,12.14
2022-09-27T08:05:47.255Z,12.20
2022-09-27T08:08:15.894Z,12.20
2022-09-27T08:10:44.412Z,12.30
2022-09-27T08:13:11.805Z,12.36
2022-09-27T08:15:41.361Z,12.31
2022-09-27T08:18:11.401Z,12.28
2022-09-27T08:20:38.626Z,12.41
2022-09-27T08:23:05.761Z,12.49
2022-09-27T08:25:32.563Z,12.49
2022-09-27T08:28:04.688Z,12.44
2022-09-27T08:30:32.522Z,12.45
2022-09-27T08:33:02.436Z,12.55
2022-09-27T08:35:29.959Z,12.56
2022-09-27T08:37:59.745Z,12.64
2022-09-27T08:40:44.277Z,12.69
2022-09-27T08:43:29.055Z,12.81
2022-09-27T08:46:15.696Z,12.74
2022-09-27T08:48:49.551Z,12.74
2022-09-27T08:51:17.683Z,12.80
2022-09-27T08:53:58.538Z,12.71
2022-09-27T08:56:26.667Z,12.48
2022-09-27T08:59:21.048Z,12.46
2022-09-27T09:01:53.498Z,12.53
2022-09-27T09:04:36.765Z,12.50
2022-09-27T09:07:29.163Z,12.48
2022-09-27T09:10:51.761Z,12.45
2022-09-27T09:14:13.427Z,12.48
2022-09-27T09:16:53.090Z,12.53
2022-09-27T09:19:57.687Z,12.60
2022-09-27T09:23:07.849Z,12.63
2022-09-27T09:26:06.123Z,12.72
2022-09-27T09:29:19.033Z,12.71
2022-09-27T09:32:34.483Z,12.74
2022-09-27T09:35:07.684Z,12.73
2022-09-27T09:37:41.332Z,12.97
2022-09-27T09:40:22.063Z,12.87
2022-09-27T09:43:02.782Z,12.88
2022-09-27T09:45:51.756Z,12.89
2022-09-27T09:48:32.465Z,13.22
2022-09-27T09:51:02.499Z,13.32
2022-09-27T09:53:39.423Z,13.29
2022-09-27T09:56:15.725Z,13.42
2022-09-27T09:58:50.948Z,13.56
2022-09-27T10:01:26.386Z,13.50
2022-09-27T10:03:56.139Z,13.67
2022-09-27T10:06:25.039Z,13.51
2022-09-27T10:08:54.833Z,13.55
2022-09-27T10:11:32.044Z,13.63
2022-09-27T10:13:58.902Z,13.77
2022-09-27T10:16:28.783Z,13.79
2022-09-27T10:19:03.665Z,13.91
2022-09-27T10:21:31.028Z,13.91
2022-09-27T10:24:13.720Z,14.02
2022-09-27T10:26:46.920Z,14.15
2022-09-27T10:29:19.444Z,14.09
2022-09-27T10:31:48.669Z,14.05
2022-09-27T10:34:31.101Z,14.17
2022-09-27T10:37:13.267Z,14.08
2022-09-27T10:39:43.431Z,13.99
2022-09-27T10:42:36.157Z,13.84
2022-09-27T10:45:24.750Z,13.89
2022-09-27T10:47:51.758Z,13.72
2022-09-27T10:50:49.674Z,13.82
2022-09-27T10:53:21.857Z,13.74
2022-09-27T10:55:51.558Z,13.63
2022-09-27T10:58:33.431Z,13.76
2022-09-27T11:01:08.687Z,13.62
2022-09-27T11:03:49.688Z,13.59
2022-09-27T11:06:25.223Z,13.71
2022-09-27T11:08:54.056Z,13.88
2022-09-27T11:11:27.015Z,13.79
2022-09-27T11:14:22.385Z,13.86
2022-09-27T11:17:16.353Z,13.98
2022-09-27T11:20:08.867Z,13.92
2022-09-27T11:23:26.115Z,13.90
2022-09-27T11:26:36.995Z,13.86
2022-09-27T11:29:25.619Z,13.97
2022-09-27T11:32:13.460Z,13.85
2022-09-27T11:35:14.760Z,13.88
2022-09-27T11:38:09.630Z,13.77
2022-09-27T11:41:03.597Z,13.85
2022-09-27T11:44:02.641Z,13.94
2022-09-27T11:46:41.994Z,13.99
2022-09-27T11:49:39.899Z,13.97
2022-09-27T11:52:29.865Z,14.03
2022-09-27T11:55:20.550Z,13.95
2022-09-27T11:58:11.576Z,13.87
2022-09-27T12:01:05.824Z,13.75
2022-09-27T12:04:05.315Z,13.88
2022-09-27T12:06:59.371Z,13.85
2022-09-27T12:09:36.086Z,13.78
2022-09-27T12:12:16.385Z,13.67
2022-09-27T12:14:56.303Z,13.65
2022-09-27T12:17:28.373Z,13.59
2022-09-27T12:19:59.427Z,13.60
2022-09-27T12:22:58.592Z,13.64
2022-09-27T12:25:34.482Z,13.64
2022-09-27T12:28:34.677Z,13.64
2022-09-27T12:31:28.977Z,13.55
2022-09-27T12:34:47.169Z,13.56
2022-09-27T12:37:28.594Z,13.52
2022-09-27T12:40:19.276Z,13.46
2022-09-27T12:43:17.546Z,13.37
2022-09-27T12:46:15.109Z,13.28
2022-09-27T12:48:47.942Z,13.07
2022-09-27T12:51:19.797Z,12.91
2022-09-27T12:54:12.548Z,12.86
2022-09-27T12:56:51.786Z,12.77
2022-09-27T12:59:27.390Z,12.79
2022-09-27T13:03:03.810Z,12.78
2022-09-27T13:05:39.926Z,12.67
2022-09-27T13:08:46.664Z,12.69
2022-09-27T13:11:24.029Z,12.49
2022-09-27T13:13:57.134Z,12.56
2022-09-27T13:16:25.653Z,12.57
2022-09-27T13:19:03.409Z,12.75
2022-09-27T13:21:56.149Z,12.82
2022-09-27T13:24:40.915Z,12.70
2022-09-27T13:27:25.627Z,12.69
2022-09-27T13:30:12.558Z,12.66
2022-09-27T13:32:40.793Z,12.74
2022-09-27T13:35:24.444Z,12.78
2022-09-27T13:37:56.685Z,12.82
2022-09-27T13:40:33.710Z,12.83
2022-09-27T13:43:10.901Z,12.87
2022-09-27T13:45:57.296Z,12.97
2022-09-27T13:48:45.290Z,12.97
2022-09-27T13:51:54.828Z,13.05
2022-09-27T13:54:55.158Z,13.07
2022-09-27T13:57:52.568Z,13.21
2022-09-27T14:00:39.427Z,13.15
2022-09-27T14:03:16.851Z,13.17
2022-09-27T14:05:59.390Z,13.09
2022-09-27T14:08:34.054Z,13.18
2022-09-27T14:11:03.802Z,13.17
2022-09-27T14:13:32.811Z,13.26
2022-09-27T14:16:04.633Z,13.21
2022-09-27T14:18:33.678Z,13.21
2022-09-27T14:21:39.735Z,13.08
2022-09-27T14:24:37.007Z,13.24
2022-09-27T14:27:12.433Z,13.25
2022-09-27T14:30:00.898Z,13.18
2022-09-27T14:32:37.482Z,13.30
2022-09-27T14:36:07.725Z,13.18
2022-09-27T14:38:39.006Z,12.99
2022-09-27T14:41:08.381Z,12.91
2022-09-27T14:43:37.157Z,12.90
2022-09-27T14:46:07.071Z,12.86
2022-09-27T14:48:37.303Z,12.82
2022-09-27T14:51:14.611Z,12.78
2022-09-27T14:53:50.077Z,12.65
2022-09-27T14:56:23.694Z,12.51
2022-09-27T14:59:09.037Z,12.64
2022-09-27T15:01:38.084Z,12.65
2022-09-27T15:04:08.020Z,12.78
2022-09-27T15:06:38.802Z,12.80
2022-09-27T15:09:07.003Z,12.80
2022-09-27T15:11:34.693Z,12.69
2022-09-27T15:14:03.838Z,12.93
2022-09-27T15:16:31.576Z,12.88
2022-09-27T15:19:27.943Z,13.09
2022-09-27T15:21:57.228Z,13.13
2022-09-27T15:24:44.938Z,13.31
2022-09-27T15:27:18.690Z,13.33
2022-09-27T15:29:57.019Z,13.34
2022-09-27T15:32:27.531Z,13.51
2022-09-27T15:34:56.277Z,13.59
2022-09-27T15:37:36.631Z,13.54
2022-09-27T15:40:45.224Z,13.36
2022-09-27T15:43:34.181Z,13.30
2022-09-27T15:46:05.833Z,13.19
2022-09-27T15:48:37.407Z,13.14
2022-09-27T15:51:41.207Z,13.01
2022-09-27T15:54:08.061Z,13.06
2022-09-27T15:56:35.123Z,12.95
2022-09-27T15:59:02.806Z,13.03
2022-09-27T16:01:29.762Z,12.96
2022-09-27T16:03:59.998Z,12.98
2022-09-27T16:06:28.777Z,12.92
2022-09-27T16:08:55.557Z,13.02
2022-09-27T16:11:22.376Z,13.02
2022-09-27T16:13:50.237Z,12.95
2022-09-27T16:16:19.813Z,12.83
2022-09-27T16:18:47.676Z,12.88
2022-09-27T16:21:15.252Z,12.98
2022-09-27T16:23:42.107Z,12.96
2022-09-27T16:26:09.028Z,13.03
2022-09-27T16:28:35.926Z,12.85
2022-09-27T16:31:05.885Z,12.99
2022-09-27T16:33:33.413Z,12.94
2022-09-27T16:36:03.519Z,12.87
2022-09-27T16:38:30.328Z,12.77
2022-09-27T16:41:02.989Z,12.82
2022-09-27T16:43:31.172Z,12.90
2022-09-27T16:46:08.426Z,12.88
2022-09-27T16:48:35.860Z,12.87
2022-09-27T16:51:46.590Z,12.74
2022-09-27T16:54:15.751Z,12.73
2022-09-27T16:56:42.923Z,12.78
2022-09-27T16:59:10.107Z,12.75
2022-09-27T17:01:37.016Z,12.71
2022-09-27T17:04:03.994Z,12.67
2022-09-27T17:06:32.028Z,12.70
2022-09-27T17:09:04.160Z,12.69
2022-09-27T17:11:31.058Z,12.67
2022-09-27T17:13:58.271Z,12.71
2022-09-27T17:16:25.782Z,12.69
2022-09-27T17:18:52.625Z,12.61
2022-09-27T17:21:19.723Z,12.49
2022-09-27T17:23:47.073Z,12.65
2022-09-27T17:26:22.917Z,12.49
2022-09-27T17:28:50.500Z,12.46
2022-09-27T17:31:18.934Z,12.34
2022-09-27T17:33:48.485Z,12.48
2022-09-27T17:36:25.184Z,12.22
2022-09-27T17:38:52.893Z,12.22
2022-09-27T17:41:24.208Z,12.33
2022-09-27T17:44:00.464Z,12.31
2022-09-27T17:46:33.947Z,12.22
2022-09-27T17:49:20.338Z,12.19
2022-09-27T17:51:50.756Z,12.26
2022-09-27T17:54:20.046Z,12.25
2022-09-27T17:56:47.832Z,12.19
2022-09-27T17:59:16.042Z,12.19
2022-09-27T18:01:45.607Z,12.17
2022-09-27T18:04:17.231Z,12.15
2022-09-27T18:06:46.565Z,12.06
2022-09-27T18:09:16.386Z,12.00
2022-09-27T18:11:44.031Z,11.92
2022-09-27T18:14:11.221Z,11.71
2022-09-27T18:16:42.849Z,11.76
2022-09-27T18:19:14.165Z,11.82
2022-09-27T18:21:41.233Z,11.76
2022-09-27T18:24:08.365Z,11.77
2022-09-27T18:26:37.902Z,11.77
2022-09-27T18:29:12.119Z,11.58
2022-09-27T18:31:40.200Z,11.60
2022-09-27T18:34:09.092Z,11.55
2022-09-27T18:36:37.559Z,11.36
2022-09-27T18:39:09.365Z,11.32
2022-09-27T18:41:36.572Z,11.02
2022-09-27T18:44:06.193Z,11.26
2022-09-27T18:46:36.681Z,11.19
2022-09-27T18:49:07.577Z,11.31
2022-09-27T18:51:37.380Z,11.30
2022-09-27T18:54:09.238Z,11.28
2022-09-27T18:56:41.680Z,11.18
2022-09-27T18:59:10.329Z,11.18
2022-09-27T19:01:40.167Z,11.15
2022-09-27T19:04:08.972Z,11.22
2022-09-27T19:06:37.338Z,11.24
2022-09-27T19:09:05.469Z,11.22
2022-09-27T19:11:33.994Z,11.13
2022-09-27T19:14:01.456Z,11.08
2022-09-27T19:16:29.546Z,11.15
2022-09-27T19:18:56.602Z,11.10
2022-09-27T19:21:26.975Z,11.18
2022-09-27T19:23:54.551Z,11.11
2022-09-27T19:26:24.197Z,11.12
2022-09-27T19:28:51.642Z,10.94
2022-09-27T19:31:26.269Z,11.07
2022-09-27T19:33:59.016Z,10.99
2022-09-27T19:36:25.981Z,10.97
2022-09-27T19:38:53.519Z,11.00
2022-09-27T19:41:20.352Z,10.94
2022-09-27T19:43:54.807Z,11.00
2022-09-27T19:46:23.619Z,10.81
2022-09-27T19:48:51.341Z,10.77
2022-09-27T19:51:24.653Z,10.81
2022-09-27T19:53:53.001Z,10.83
2022-09-27T19:56:21.391Z,10.82
2022-09-27T19:58:48.401Z,10.53
2022-09-27T20:01:24.397Z,10.58
2022-09-27T20:03:53.455Z,10.62
2022-09-27T20:06:22.143Z,10.60
2022-09-27T20:08:49.513Z,10.53
2022-09-27T20:11:22.108Z,10.39
2022-09-27T20:13:50.433Z,10.47
2022-09-27T20:16:23.799Z,10.49
2022-09-27T20:18:58.438Z,10.50
2022-09-27T20:21:28.969Z,10.40
2022-09-27T20:23:57.425Z,10.41
2022-09-27T20:26:26.456Z,10.38
2022-09-27T20:28:59.466Z,10.23
2022-09-27T20:31:30.043Z,10.29
2022-09-27T20:33:57.410Z,10.37
2022-09-27T20:36:31.170Z,10.26
2022-09-27T20:39:03.941Z,10.29
2022-09-27T20:41:40.900Z,10.15
2022-09-27T20:44:12.624Z,10.27
2022-09-27T20:46:41.548Z,10.14
2022-09-27T20:49:14.802Z,10.23
2022-09-27T20:51:44.258Z,10.25
2022-09-27T20:54:12.804Z,10.24
2022-09-27T20:56:43.039Z,10.28
2022-09-27T20:59:17.440Z,10.28
2022-09-27T21:01:47.313Z,10.27
2022-09-27T21:04:16.914Z,10.18
2022-09-27T21:06:44.358Z,10.19
2022-09-27T21:09:18.509Z,10.17
2022-09-27T21:11:47.439Z,10.10
2022-09-27T21:14:14.440Z,10.01
2022-09-27T21:16:41.437Z,9.96
2022-09-27T21:19:09.801Z,10.22
2022-09-27T21:21:36.945Z,10.23
2022-09-27T21:24:03.983Z,10.26
2022-09-27T21:26:33.434Z,10.29
2022-09-27T21:29:05.080Z,10.24
2022-09-27T21:31:33.061Z,10.23
2022-09-27T21:34:03.551Z,10.14
2022-09-27T21:36:33.914Z,10.26
2022-09-27T21:39:02.054Z,10.22
2022-09-27T21:41:28.946Z,10.28
2022-09-27T21:43:56.126Z,10.38
2022-09-27T21:46:27.474Z,10.43
2022-09-27T21:48:58.991Z,10.37
2022-09-27T21:51:36.578Z,10.57
2022-09-27T21:54:10.040Z,10.66
2022-09-27T21:56:39.569Z,10.75
2022-09-27T21:59:10.462Z,10.74
2022-09-27T22:01:37.347Z,10.68
2022-09-27T22:04:06.765Z,10.85
2022-09-27T22:06:36.783Z,10.93
2022-09-27T22:09:11.420Z,10.95
2022-09-27T22:11:44.236Z,10.88
2022-09-27T22:14:12.660Z,10.96
2022-09-27T22:16:39.917Z,10.94
2022-09-27T22:19:07.685Z,11.02
2022-09-27T22:21:37.581Z,10.80
2022-09-27T22:24:13.191Z,10.95
2022-09-27T22:26:42.361Z,10.85
2022-09-27T22:29:09.327Z,10.91
2022-09-27T22:31:37.441Z,10.94
2022-09-27T22:34:07.635Z,11.00
2022-09-27T22:36:35.158Z,10.82
2022-09-27T22:39:02.549Z,10.90
2022-09-27T22:41:30.460Z,10.90
2022-09-27T22:43:57.914Z,10.80
2022-09-27T22:46:25.205Z,10.90
2022-09-27T22:48:52.306Z,10.94
2022-09-27T22:51:19.355Z,10.94
2022-09-27T22:53:46.316Z,11.09
2022-09-27T22:56:19.106Z,11.09
2022-09-27T22:58:47.683Z,11.11
2022-09-27T23:01:18.211Z,10.81
2022-09-27T23:03:45.848Z,11.06
2022-09-27T23:06:14.436Z,10.96
2022-09-27T23:08:41.484Z,11.13
2022-09-27T23:11:15.097Z,11.18
2022-09-27T23:13:43.783Z,11.23
2022-09-27T23:16:16.022Z,11.19
2022-09-27T23:18:44.027Z,11.26
2022-09-27T23:21:13.127Z,11.24
2022-09-27T23:23:42.464Z,11.19
2022-09-27T23:26:12.277Z,11.22
2022-09-27T23:28:39.189Z,11.16
2022-09-27T23:31:16.689Z,11.26
2022-09-27T23:33:48.392Z,11.28
2022-09-27T23:36:19.850Z,11.25
2022-09-27T23:38:48.606Z,11.27
2022-09-27T23:41:17.172Z,11.20
2022-09-27T23:43:44.821Z,11.25
2022-09-27T23:46:12.568Z,11.23
2022-09-27T23:48:40.246Z,11.13
2022-09-27T23:51:10.354Z,11.31
2022-09-27T23:53:38.834Z,11.33
2022-09-27T23:56:17.206Z,11.31
2022-09-27T23:58:46.222Z,11.32
